sensor_id;sensor_type;location;lat;lon;timestamp;temperature;humidity
79694;DHT22;69165;52.714;13.200;2023-06-05T05:02:15;11.50;99.90
79694;DHT22;69165;52.714;13.200;2023-06-05T05:04:17;11.60;99.90
79694;DHT22;69165;52.714;13.200;2023-06-05T05:06:19;11.60;99.90
79694;DHT22;69165;52.714;13.200;2023-06-05T05:08:20;11.70;99.90
79694;DHT22;69165;52.714;13.200;2023-06-05T05:10:21;11.80;99.90
79694;DHT22;69165;52.714;13.200;2023-06-05T05:12:22;12.00;99.90
79694;DHT22;69165;52.714;13.200;2023-06-05T05:14:24;12.40;99.90
79694;DHT22;69165;52.714;13.200;2023-06-05T05:16:25;13.20;99.90
79694;DHT22;69165;52.714;13.200;2023-06-05T05:18:26;14.00;99.90
79694;DHT22;69165;52.714;13.200;2023-06-05T05:20:27;14.70;99.90
79694;DHT22;69165;52.714;13.200;2023-06-05T05:22:29;16.00;99.90
79694;DHT22;69165;52.714;13.200;2023-06-05T05:24:31;16.00;99.90
79694;DHT22;69165;52.714;13.200;2023-06-05T05:26:33;16.80;99.90
79694;DHT22;69165;52.714;13.200;2023-06-05T05:28:35;16.80;99.90
79694;DHT22;69165;52.714;13.200;2023-06-05T05:30:37;17.20;99.90
79694;DHT22;69165;52.714;13.200;2023-06-05T05:32:38;17.20;99.90
79694;DHT22;69165;52.714;13.200;2023-06-05T05:34:39;17.50;99.90
79694;DHT22;69165;52.714;13.200;2023-06-05T05:36:40;17.50;99.90
79694;DHT22;69165;52.714;13.200;2023-06-05T05:38:42;17.50;99.70
79694;DHT22;69165;52.714;13.200;2023-06-05T05:40:44;17.50;99.10
79694;DHT22;69165;52.714;13.200;2023-06-05T05:42:45;17.40;98.70
79694;DHT22;69165;52.714;13.200;2023-06-05T05:44:46;17.20;98.90
79694;DHT22;69165;52.714;13.200;2023-06-05T05:46:48;17.00;99.50
79694;DHT22;69165;52.714;13.200;2023-06-05T05:48:49;16.80;99.70
79694;DHT22;69165;52.714;13.200;2023-06-05T05:50:50;16.70;99.90
79694;DHT22;69165;52.714;13.200;2023-06-05T05:52:52;16.20;99.90
79694;DHT22;69165;52.714;13.200;2023-06-05T05:54:53;16.20;99.90
79694;DHT22;69165;52.714;13.200;2023-06-05T05:56:55;16.00;99.90
79694;DHT22;69165;52.714;13.200;2023-06-05T05:58:56;15.80;99.90
79694;DHT22;69165;52.714;13.200;2023-06-05T06:00:58;15.30;99.90
79694;DHT22;69165;52.714;13.200;2023-06-05T06:02:59;15.30;99.90
79694;DHT22;69165;52.714;13.200;2023-06-05T06:05:00;15.20;99.90
79694;DHT22;69165;52.714;13.200;2023-06-05T06:07:02;15.10;99.90
79694;DHT22;69165;52.714;13.200;2023-06-05T06:09:03;15.10;99.90
79694;DHT22;69165;52.714;13.200;2023-06-05T06:11:04;15.10;99.90
79694;DHT22;69165;52.714;13.200;2023-06-05T06:13:06;15.10;99.90
79694;DHT22;69165;52.714;13.200;2023-06-05T06:15:07;15.10;99.90
79694;DHT22;69165;52.714;13.200;2023-06-05T06:17:08;15.10;99.90
79694;DHT22;69165;52.714;13.200;2023-06-05T06:19:10;15.20;99.90
79694;DHT22;69165;52.714;13.200;2023-06-05T06:21:13;15.20;99.90
79694;DHT22;69165;52.714;13.200;2023-06-05T06:23:14;15.20;99.90
79694;DHT22;69165;52.714;13.200;2023-06-05T06:25:17;15.50;99.90
79694;DHT22;69165;52.714;13.200;2023-06-05T06:27:17;15.40;99.90
79694;DHT22;69165;52.714;13.200;2023-06-05T06:29:19;15.60;99.90
79694;DHT22;69165;52.714;13.200;2023-06-05T06:31:22;15.60;99.90
79694;DHT22;69165;52.714;13.200;2023-06-05T06:33:23;15.70;99.90
79694;DHT22;69165;52.714;13.200;2023-06-05T06:35:25;15.90;99.90
79694;DHT22;69165;52.714;13.200;2023-06-05T06:37:26;15.90;99.90
79694;DHT22;69165;52.714;13.200;2023-06-05T06:39:27;16.00;99.90
79694;DHT22;69165;52.714;13.200;2023-06-05T06:41:28;16.20;99.90
79694;DHT22;69165;52.714;13.200;2023-06-05T06:43:29;16.30;99.90
79694;DHT22;69165;52.714;13.200;2023-06-05T06:45:31;16.50;99.90
79694;DHT22;69165;52.714;13.200;2023-06-05T06:47:33;16.90;99.90
79694;DHT22;69165;52.714;13.200;2023-06-05T06:49:34;16.90;99.90
79694;DHT22;69165;52.714;13.200;2023-06-05T06:51:36;17.10;99.90
79694;DHT22;69165;52.714;13.200;2023-06-05T06:53:37;17.30;99.90
79694;DHT22;69165;52.714;13.200;2023-06-05T06:55:39;17.60;99.90
79694;DHT22;69165;52.714;13.200;2023-06-05T06:57:40;17.60;99.90
79694;DHT22;69165;52.714;13.200;2023-06-05T06:59:42;17.80;99.90
79694;DHT22;69165;52.714;13.200;2023-06-05T07:01:45;18.10;99.10
79694;DHT22;69165;52.714;13.200;2023-06-05T07:03:48;18.20;98.50
79694;DHT22;69165;52.714;13.200;2023-06-05T07:05:49;18.20;98.50
79694;DHT22;69165;52.714;13.200;2023-06-05T07:07:50;18.30;97.30
79694;DHT22;69165;52.714;13.200;2023-06-05T07:09:51;18.60;98.20
79694;DHT22;69165;52.714;13.200;2023-06-05T07:11:54;18.80;96.90
79694;DHT22;69165;52.714;13.200;2023-06-05T07:13:56;19.30;96.20
79694;DHT22;69165;52.714;13.200;2023-06-05T07:15:58;19.60;95.70
79694;DHT22;69165;52.714;13.200;2023-06-05T07:17:59;19.60;95.60
79694;DHT22;69165;52.714;13.200;2023-06-05T07:20:00;19.80;95.20
79694;DHT22;69165;52.714;13.200;2023-06-05T07:22:02;20.10;94.70
79694;DHT22;69165;52.714;13.200;2023-06-05T07:24:03;20.30;94.30
79694;DHT22;69165;52.714;13.200;2023-06-05T07:26:04;20.50;94.90
79694;DHT22;69165;52.714;13.200;2023-06-05T07:28:08;20.60;93.40
79694;DHT22;69165;52.714;13.200;2023-06-05T07:30:09;20.70;94.10
79694;DHT22;69165;52.714;13.200;2023-06-05T07:32:11;20.80;93.80
79694;DHT22;69165;52.714;13.200;2023-06-05T07:34:14;21.00;93.50
79694;DHT22;69165;52.714;13.200;2023-06-05T07:36:15;21.00;92.90
79694;DHT22;69165;52.714;13.200;2023-06-05T07:38:17;21.20;92.60
79694;DHT22;69165;52.714;13.200;2023-06-05T07:40:18;21.20;92.60
79694;DHT22;69165;52.714;13.200;2023-06-05T07:42:19;21.40;91.20
79694;DHT22;69165;52.714;13.200;2023-06-05T07:44:21;21.60;90.40
79694;DHT22;69165;52.714;13.200;2023-06-05T07:46:22;21.70;90.60
79694;DHT22;69165;52.714;13.200;2023-06-05T07:48:24;21.90;91.20
79694;DHT22;69165;52.714;13.200;2023-06-05T07:50:25;22.10;89.30
79694;DHT22;69165;52.714;13.200;2023-06-05T07:52:26;22.30;90.30
79694;DHT22;69165;52.714;13.200;2023-06-05T07:54:27;22.30;86.30
79694;DHT22;69165;52.714;13.200;2023-06-05T07:56:30;22.50;84.60
79694;DHT22;69165;52.714;13.200;2023-06-05T07:58:32;22.60;83.90
79694;DHT22;69165;52.714;13.200;2023-06-05T08:00:33;22.60;83.90
79694;DHT22;69165;52.714;13.200;2023-06-05T08:02:34;22.70;83.70
79694;DHT22;69165;52.714;13.200;2023-06-05T08:04:35;22.70;83.30
79694;DHT22;69165;52.714;13.200;2023-06-05T08:06:37;22.80;81.30
79694;DHT22;69165;52.714;13.200;2023-06-05T08:08:39;22.80;81.20
79694;DHT22;69165;52.714;13.200;2023-06-05T08:10:40;22.80;82.40
79694;DHT22;69165;52.714;13.200;2023-06-05T08:12:41;22.90;83.10
79694;DHT22;69165;52.714;13.200;2023-06-05T08:14:42;22.90;81.40
79694;DHT22;69165;52.714;13.200;2023-06-05T08:16:44;23.00;81.00
79694;DHT22;69165;52.714;13.200;2023-06-05T08:18:45;23.10;79.40
79694;DHT22;69165;52.714;13.200;2023-06-05T08:20:47;23.10;78.00
79694;DHT22;69165;52.714;13.200;2023-06-05T08:22:48;23.10;77.90
79694;DHT22;69165;52.714;13.200;2023-06-05T08:24:49;23.20;78.50
79694;DHT22;69165;52.714;13.200;2023-06-05T08:26:52;23.40;77.20
79694;DHT22;69165;52.714;13.200;2023-06-05T08:28:53;23.40;77.20
79694;DHT22;69165;52.714;13.200;2023-06-05T08:30:54;23.40;77.90
79694;DHT22;69165;52.714;13.200;2023-06-05T08:32:55;23.50;77.40
79694;DHT22;69165;52.714;13.200;2023-06-05T08:34:57;23.40;76.90
79694;DHT22;69165;52.714;13.200;2023-06-05T08:36:59;23.40;74.90
79694;DHT22;69165;52.714;13.200;2023-06-05T08:39:00;23.40;74.90
79694;DHT22;69165;52.714;13.200;2023-06-05T08:41:02;23.40;75.40
79694;DHT22;69165;52.714;13.200;2023-06-05T08:43:03;23.50;75.30
79694;DHT22;69165;52.714;13.200;2023-06-05T08:45:06;23.60;75.60
79694;DHT22;69165;52.714;13.200;2023-06-05T08:47:06;23.70;74.50
79694;DHT22;69165;52.714;13.200;2023-06-05T08:49:08;23.80;75.30
79694;DHT22;69165;52.714;13.200;2023-06-05T08:51:10;23.80;72.90
79694;DHT22;69165;52.714;13.200;2023-06-05T08:53:10;23.80;73.50
79694;DHT22;69165;52.714;13.200;2023-06-05T08:55:12;23.80;71.90
79694;DHT22;69165;52.714;13.200;2023-06-05T08:57:14;23.50;68.70
79694;DHT22;69165;52.714;13.200;2023-06-05T08:59:15;23.50;68.70
79694;DHT22;69165;52.714;13.200;2023-06-05T09:01:17;23.70;71.90
79694;DHT22;69165;52.714;13.200;2023-06-05T09:03:18;23.70;72.00
79694;DHT22;69165;52.714;13.200;2023-06-05T09:05:20;23.80;71.70
79694;DHT22;69165;52.714;13.200;2023-06-05T09:07:21;24.00;72.50
79694;DHT22;69165;52.714;13.200;2023-06-05T09:09:22;24.10;72.00
79694;DHT22;69165;52.714;13.200;2023-06-05T09:11:26;24.20;69.20
79694;DHT22;69165;52.714;13.200;2023-06-05T09:13:27;24.10;69.00
79694;DHT22;69165;52.714;13.200;2023-06-05T09:15:28;24.10;69.00
79694;DHT22;69165;52.714;13.200;2023-06-05T09:17:29;24.20;71.60
79694;DHT22;69165;52.714;13.200;2023-06-05T09:19:36;24.10;68.30
79694;DHT22;69165;52.714;13.200;2023-06-05T09:21:37;24.10;68.00
79694;DHT22;69165;52.714;13.200;2023-06-05T09:23:39;24.00;69.50
79694;DHT22;69165;52.714;13.200;2023-06-05T09:25:45;24.00;69.50
79694;DHT22;69165;52.714;13.200;2023-06-05T09:27:58;24.10;68.30
79694;DHT22;69165;52.714;13.200;2023-06-05T09:29:47;24.10;67.20
79694;DHT22;69165;52.714;13.200;2023-06-05T09:31:49;24.00;65.70
79694;DHT22;69165;52.714;13.200;2023-06-05T09:33:55;23.90;65.60
79694;DHT22;69165;52.714;13.200;2023-06-05T09:38:02;23.80;72.40
79694;DHT22;69165;52.714;13.200;2023-06-05T09:40:04;23.80;68.70
79694;DHT22;69165;52.714;13.200;2023-06-05T09:42:05;23.80;66.60
79694;DHT22;69165;52.714;13.200;2023-06-05T09:44:07;24.10;69.80
79694;DHT22;69165;52.714;13.200;2023-06-05T09:46:10;24.10;69.80
79694;DHT22;69165;52.714;13.200;2023-06-05T09:48:13;24.20;67.70
79694;DHT22;69165;52.714;13.200;2023-06-05T09:50:22;24.30;68.80
79694;DHT22;69165;52.714;13.200;2023-06-05T09:52:25;24.30;67.80
79694;DHT22;69165;52.714;13.200;2023-06-05T09:54:27;24.40;69.50
79694;DHT22;69165;52.714;13.200;2023-06-05T09:56:27;24.50;68.00
79694;DHT22;69165;52.714;13.200;2023-06-05T09:58:29;24.50;66.30
79694;DHT22;69165;52.714;13.200;2023-06-05T10:00:30;24.50;68.00
79694;DHT22;69165;52.714;13.200;2023-06-05T10:02:32;24.50;67.10
79694;DHT22;69165;52.714;13.200;2023-06-05T10:04:40;24.70;68.70
79694;DHT22;69165;52.714;13.200;2023-06-05T10:06:34;24.80;69.00
79694;DHT22;69165;52.714;13.200;2023-06-05T10:08:36;25.00;67.40
79694;DHT22;69165;52.714;13.200;2023-06-05T10:10:37;24.90;67.30
79694;DHT22;69165;52.714;13.200;2023-06-05T10:12:38;24.90;66.10
79694;DHT22;69165;52.714;13.200;2023-06-05T10:14:40;24.70;64.60
79694;DHT22;69165;52.714;13.200;2023-06-05T10:16:41;24.70;69.00
79694;DHT22;69165;52.714;13.200;2023-06-05T10:18:42;24.70;68.20
79694;DHT22;69165;52.714;13.200;2023-06-05T10:20:43;24.70;69.70
79694;DHT22;69165;52.714;13.200;2023-06-05T10:22:45;24.70;68.90
79694;DHT22;69165;52.714;13.200;2023-06-05T10:24:48;24.70;68.90
79694;DHT22;69165;52.714;13.200;2023-06-05T10:29:02;24.60;68.00
79694;DHT22;69165;52.714;13.200;2023-06-05T10:32:07;24.70;67.80
79694;DHT22;69165;52.714;13.200;2023-06-05T10:33:21;24.70;67.20
79694;DHT22;69165;52.714;13.200;2023-06-05T10:35:24;24.70;65.90
79694;DHT22;69165;52.714;13.200;2023-06-05T10:39:28;25.00;67.90
79694;DHT22;69165;52.714;13.200;2023-06-05T10:41:29;24.90;63.20
79694;DHT22;69165;52.714;13.200;2023-06-05T10:43:32;24.90;63.20
79694;DHT22;69165;52.714;13.200;2023-06-05T10:45:33;24.80;63.80
79694;DHT22;69165;52.714;13.200;2023-06-05T10:47:50;24.70;65.60
79694;DHT22;69165;52.714;13.200;2023-06-05T10:51:58;24.90;67.80
79694;DHT22;69165;52.714;13.200;2023-06-05T10:53:59;25.00;67.50
79694;DHT22;69165;52.714;13.200;2023-06-05T10:56:00;25.00;65.60
79694;DHT22;69165;52.714;13.200;2023-06-05T10:58:04;25.10;65.70
79694;DHT22;69165;52.714;13.200;2023-06-05T11:00:05;25.10;66.20
79694;DHT22;69165;52.714;13.200;2023-06-05T11:02:22;25.10;67.90
79694;DHT22;69165;52.714;13.200;2023-06-05T11:04:23;25.20;64.90
79694;DHT22;69165;52.714;13.200;2023-06-05T11:06:25;25.20;65.60
79694;DHT22;69165;52.714;13.200;2023-06-05T11:08:25;25.20;64.40
79694;DHT22;69165;52.714;13.200;2023-06-05T11:10:27;25.30;68.80
79694;DHT22;69165;52.714;13.200;2023-06-05T11:16:43;25.30;65.00
79694;DHT22;69165;52.714;13.200;2023-06-05T11:18:44;25.30;65.50
79694;DHT22;69165;52.714;13.200;2023-06-05T11:20:48;25.30;68.50
79694;DHT22;69165;52.714;13.200;2023-06-05T11:23:06;25.20;63.80
79694;DHT22;69165;52.714;13.200;2023-06-05T11:25:28;25.20;64.90
79694;DHT22;69165;52.714;13.200;2023-06-05T11:29:37;25.40;65.50
79694;DHT22;69165;52.714;13.200;2023-06-05T11:31:38;25.40;65.50
79694;DHT22;69165;52.714;13.200;2023-06-05T11:33:40;25.40;61.30
79694;DHT22;69165;52.714;13.200;2023-06-05T11:35:43;25.40;64.20
79694;DHT22;69165;52.714;13.200;2023-06-05T11:37:43;25.30;64.10
79694;DHT22;69165;52.714;13.200;2023-06-05T11:39:44;25.50;64.00
79694;DHT22;69165;52.714;13.200;2023-06-05T11:41:47;25.60;63.90
79694;DHT22;69165;52.714;13.200;2023-06-05T11:43:47;25.60;63.80
79694;DHT22;69165;52.714;13.200;2023-06-05T11:45:50;25.70;63.90
79694;DHT22;69165;52.714;13.200;2023-06-05T11:47:51;25.70;62.60
79694;DHT22;69165;52.714;13.200;2023-06-05T11:49:52;25.70;61.30
79694;DHT22;69165;52.714;13.200;2023-06-05T11:51:54;25.50;62.50
79694;DHT22;69165;52.714;13.200;2023-06-05T11:53:56;25.60;63.80
79694;DHT22;69165;52.714;13.200;2023-06-05T11:55:57;25.60;64.10
79694;DHT22;69165;52.714;13.200;2023-06-05T11:58:10;25.60;63.80
79694;DHT22;69165;52.714;13.200;2023-06-05T12:00:13;25.80;62.80
79694;DHT22;69165;52.714;13.200;2023-06-05T12:02:20;25.80;62.00
79694;DHT22;69165;52.714;13.200;2023-06-05T12:04:16;25.70;61.90
79694;DHT22;69165;52.714;13.200;2023-06-05T12:06:17;25.70;61.10
79694;DHT22;69165;52.714;13.200;2023-06-05T12:08:21;25.70;61.00
79694;DHT22;69165;52.714;13.200;2023-06-05T12:10:32;25.60;60.50
79694;DHT22;69165;52.714;13.200;2023-06-05T12:12:24;25.60;60.40
79694;DHT22;69165;52.714;13.200;2023-06-05T12:14:28;25.70;62.70
79694;DHT22;69165;52.714;13.200;2023-06-05T12:16:34;25.90;62.70
79694;DHT22;69165;52.714;13.200;2023-06-05T12:18:35;25.90;62.70
79694;DHT22;69165;52.714;13.200;2023-06-05T12:20:38;25.90;61.60
79694;DHT22;69165;52.714;13.200;2023-06-05T12:22:38;25.70;60.80
79694;DHT22;69165;52.714;13.200;2023-06-05T12:24:40;25.50;62.10
79694;DHT22;69165;52.714;13.200;2023-06-05T12:28:48;25.40;63.20
79694;DHT22;69165;52.714;13.200;2023-06-05T12:30:49;25.60;63.30
79694;DHT22;69165;52.714;13.200;2023-06-05T12:32:50;25.80;61.60
79694;DHT22;69165;52.714;13.200;2023-06-05T12:34:52;26.00;61.50
79694;DHT22;69165;52.714;13.200;2023-06-05T12:36:54;26.00;61.50
79694;DHT22;69165;52.714;13.200;2023-06-05T12:39:00;26.00;59.90
79694;DHT22;69165;52.714;13.200;2023-06-05T12:40:57;26.00;59.90
79694;DHT22;69165;52.714;13.200;2023-06-05T12:42:58;25.90;59.80
79694;DHT22;69165;52.714;13.200;2023-06-05T12:45:00;25.90;60.30
79694;DHT22;69165;52.714;13.200;2023-06-05T12:47:02;25.80;60.30
79694;DHT22;69165;52.714;13.200;2023-06-05T12:49:03;25.90;60.60
79694;DHT22;69165;52.714;13.200;2023-06-05T12:51:04;25.90;60.40
79694;DHT22;69165;52.714;13.200;2023-06-05T12:53:05;26.00;59.90
79694;DHT22;69165;52.714;13.200;2023-06-05T12:55:07;26.20;60.40
79694;DHT22;69165;52.714;13.200;2023-06-05T12:57:08;26.20;62.30
79694;DHT22;69165;52.714;13.200;2023-06-05T12:59:10;26.30;60.90
79694;DHT22;69165;52.714;13.200;2023-06-05T13:01:12;26.20;60.80
79694;DHT22;69165;52.714;13.200;2023-06-05T13:03:13;26.20;60.10
79694;DHT22;69165;52.714;13.200;2023-06-05T13:05:14;26.20;60.40
79694;DHT22;69165;52.714;13.200;2023-06-05T13:07:16;26.10;59.00
79694;DHT22;69165;52.714;13.200;2023-06-05T13:09:18;26.10;59.30
79694;DHT22;69165;52.714;13.200;2023-06-05T13:11:20;26.10;59.30
79694;DHT22;69165;52.714;13.200;2023-06-05T13:13:22;25.90;60.00
79694;DHT22;69165;52.714;13.200;2023-06-05T13:15:23;25.90;60.00
79694;DHT22;69165;52.714;13.200;2023-06-05T13:17:24;25.90;60.50
79694;DHT22;69165;52.714;13.200;2023-06-05T13:19:26;25.90;61.70
79694;DHT22;69165;52.714;13.200;2023-06-05T13:21:27;26.20;60.20
79694;DHT22;69165;52.714;13.200;2023-06-05T13:23:29;26.10;60.10
79694;DHT22;69165;52.714;13.200;2023-06-05T13:25:30;26.30;61.20
79694;DHT22;69165;52.714;13.200;2023-06-05T13:27:32;26.50;59.50
79694;DHT22;69165;52.714;13.200;2023-06-05T13:29:33;26.50;59.50
79694;DHT22;69165;52.714;13.200;2023-06-05T13:31:35;26.60;59.80
79694;DHT22;69165;52.714;13.200;2023-06-05T13:33:36;26.60;60.20
79694;DHT22;69165;52.714;13.200;2023-06-05T13:35:39;26.80;59.20
79694;DHT22;69165;52.714;13.200;2023-06-05T13:37:39;26.80;59.20
79694;DHT22;69165;52.714;13.200;2023-06-05T13:39:40;26.90;59.60
79694;DHT22;69165;52.714;13.200;2023-06-05T13:41:42;26.80;58.60
79694;DHT22;69165;52.714;13.200;2023-06-05T13:43:45;26.70;58.40
79694;DHT22;69165;52.714;13.200;2023-06-05T13:45:46;26.70;58.40
79694;DHT22;69165;52.714;13.200;2023-06-05T13:47:47;26.70;58.70
79694;DHT22;69165;52.714;13.200;2023-06-05T13:49:49;26.70;57.50
79694;DHT22;69165;52.714;13.200;2023-06-05T13:51:50;26.70;57.50
79694;DHT22;69165;52.714;13.200;2023-06-05T13:53:53;26.70;58.30
79694;DHT22;69165;52.714;13.200;2023-06-05T13:55:53;26.80;58.20
79694;DHT22;69165;52.714;13.200;2023-06-05T13:57:55;26.70;58.20
79694;DHT22;69165;52.714;13.200;2023-06-05T13:59:57;26.60;56.50
79694;DHT22;69165;52.714;13.200;2023-06-05T14:01:58;26.70;56.60
79694;DHT22;69165;52.714;13.200;2023-06-05T14:03:59;26.60;57.80
79694;DHT22;69165;52.714;13.200;2023-06-05T14:06:01;26.50;56.90
79694;DHT22;69165;52.714;13.200;2023-06-05T14:08:02;26.40;56.80
79694;DHT22;69165;52.714;13.200;2023-06-05T14:10:03;26.30;57.80
79694;DHT22;69165;52.714;13.200;2023-06-05T14:12:05;26.30;57.40
79694;DHT22;69165;52.714;13.200;2023-06-05T14:14:06;26.30;57.40
79694;DHT22;69165;52.714;13.200;2023-06-05T14:16:08;26.30;57.60
79694;DHT22;69165;52.714;13.200;2023-06-05T14:18:09;26.30;57.40
79694;DHT22;69165;52.714;13.200;2023-06-05T14:20:10;26.30;56.00
79694;DHT22;69165;52.714;13.200;2023-06-05T14:22:11;26.30;57.60
79694;DHT22;69165;52.714;13.200;2023-06-05T14:24:13;26.20;57.30
79694;DHT22;69165;52.714;13.200;2023-06-05T14:26:15;26.30;56.10
79694;DHT22;69165;52.714;13.200;2023-06-05T14:28:16;26.30;56.10
79694;DHT22;69165;52.714;13.200;2023-06-05T14:30:17;26.30;57.30
79694;DHT22;69165;52.714;13.200;2023-06-05T14:32:18;26.30;56.80
79694;DHT22;69165;52.714;13.200;2023-06-05T14:34:20;26.30;56.30
79694;DHT22;69165;52.714;13.200;2023-06-05T14:36:22;26.30;56.30
79694;DHT22;69165;52.714;13.200;2023-06-05T14:38:24;26.30;57.20
79694;DHT22;69165;52.714;13.200;2023-06-05T14:40:25;26.30;57.20
79694;DHT22;69165;52.714;13.200;2023-06-05T14:42:26;26.30;56.00
79694;DHT22;69165;52.714;13.200;2023-06-05T14:44:27;26.30;58.40
79694;DHT22;69165;52.714;13.200;2023-06-05T14:46:29;26.30;56.40
79694;DHT22;69165;52.714;13.200;2023-06-05T14:48:31;26.30;56.40
79694;DHT22;69165;52.714;13.200;2023-06-05T14:50:32;26.30;56.50
79694;DHT22;69165;52.714;13.200;2023-06-05T14:52:33;26.40;56.50
79694;DHT22;69165;52.714;13.200;2023-06-05T14:54:35;26.50;56.50
79694;DHT22;69165;52.714;13.200;2023-06-05T14:56:36;26.50;56.40
79694;DHT22;69165;52.714;13.200;2023-06-05T14:58:38;26.50;56.80
79694;DHT22;69165;52.714;13.200;2023-06-05T15:00:39;26.50;55.80
79694;DHT22;69165;52.714;13.200;2023-06-05T15:02:41;26.40;55.40
79694;DHT22;69165;52.714;13.200;2023-06-05T15:04:42;26.40;55.40
79694;DHT22;69165;52.714;13.200;2023-06-05T15:06:44;26.30;55.70
79694;DHT22;69165;52.714;13.200;2023-06-05T15:08:45;26.30;55.90
79694;DHT22;69165;52.714;13.200;2023-06-05T15:10:46;26.40;56.50
79694;DHT22;69165;52.714;13.200;2023-06-05T15:12:47;26.30;56.10
79694;DHT22;69165;52.714;13.200;2023-06-05T15:14:49;26.30;55.70
79694;DHT22;69165;52.714;13.200;2023-06-05T15:16:50;26.30;55.50
79694;DHT22;69165;52.714;13.200;2023-06-05T15:18:52;26.30;57.00
79694;DHT22;69165;52.714;13.200;2023-06-05T15:20:53;26.30;57.00
79694;DHT22;69165;52.714;13.200;2023-06-05T15:22:55;26.30;56.00
79694;DHT22;69165;52.714;13.200;2023-06-05T15:24:57;26.20;54.50
79694;DHT22;69165;52.714;13.200;2023-06-05T15:26:59;26.20;56.30
79694;DHT22;69165;52.714;13.200;2023-06-05T15:29:00;26.10;55.70
79694;DHT22;69165;52.714;13.200;2023-06-05T15:31:02;26.20;55.70
79694;DHT22;69165;52.714;13.200;2023-06-05T15:33:03;26.10;55.90
79694;DHT22;69165;52.714;13.200;2023-06-05T15:35:04;26.10;55.50
79694;DHT22;69165;52.714;13.200;2023-06-05T15:37:06;26.00;55.00
79694;DHT22;69165;52.714;13.200;2023-06-05T15:39:08;25.90;54.90
79694;DHT22;69165;52.714;13.200;2023-06-05T15:41:10;25.90;55.20
79694;DHT22;69165;52.714;13.200;2023-06-05T15:43:11;25.90;55.20
79694;DHT22;69165;52.714;13.200;2023-06-05T15:45:13;25.90;54.70
79694;DHT22;69165;52.714;13.200;2023-06-05T15:47:14;25.90;54.60
79694;DHT22;69165;52.714;13.200;2023-06-05T15:49:15;25.90;55.70
79694;DHT22;69165;52.714;13.200;2023-06-05T15:51:17;25.90;55.00
79694;DHT22;69165;52.714;13.200;2023-06-05T15:53:18;25.90;55.20
79694;DHT22;69165;52.714;13.200;2023-06-05T15:55:19;25.80;55.40
79694;DHT22;69165;52.714;13.200;2023-06-05T15:57:20;25.90;55.50
79694;DHT22;69165;52.714;13.200;2023-06-05T15:59:22;25.80;55.40
79694;DHT22;69165;52.714;13.200;2023-06-05T16:01:24;25.80;55.20
79694;DHT22;69165;52.714;13.200;2023-06-05T16:03:25;25.70;55.10
79694;DHT22;69165;52.714;13.200;2023-06-05T16:05:26;25.70;55.60
79694;DHT22;69165;52.714;13.200;2023-06-05T16:07:27;25.70;55.90
79694;DHT22;69165;52.714;13.200;2023-06-05T16:09:29;25.70;55.70
79694;DHT22;69165;52.714;13.200;2023-06-05T16:11:30;25.70;56.70
79694;DHT22;69165;52.714;13.200;2023-06-05T16:13:31;25.70;57.10
79694;DHT22;69165;52.714;13.200;2023-06-05T16:15:32;25.70;56.30
79694;DHT22;69165;52.714;13.200;2023-06-05T16:17:34;25.60;56.30
79694;DHT22;69165;52.714;13.200;2023-06-05T16:19:36;25.70;57.80
79694;DHT22;69165;52.714;13.200;2023-06-05T16:21:37;25.60;57.70
79694;DHT22;69165;52.714;13.200;2023-06-05T16:23:38;25.60;57.10
79694;DHT22;69165;52.714;13.200;2023-06-05T16:25:40;25.60;57.90
79694;DHT22;69165;52.714;13.200;2023-06-05T16:27:41;25.60;57.80
79694;DHT22;69165;52.714;13.200;2023-06-05T16:29:43;25.60;57.60
79694;DHT22;69165;52.714;13.200;2023-06-05T16:31:44;25.50;57.10
79694;DHT22;69165;52.714;13.200;2023-06-05T16:33:46;25.40;58.00
79694;DHT22;69165;52.714;13.200;2023-06-05T16:35:48;25.30;58.10
79694;DHT22;69165;52.714;13.200;2023-06-05T16:37:49;25.30;58.10
79694;DHT22;69165;52.714;13.200;2023-06-05T16:39:51;25.30;58.40
79694;DHT22;69165;52.714;13.200;2023-06-05T16:41:52;25.30;59.30
79694;DHT22;69165;52.714;13.200;2023-06-05T16:43:54;25.30;58.10
79694;DHT22;69165;52.714;13.200;2023-06-05T16:45:55;25.20;58.00
79694;DHT22;69165;52.714;13.200;2023-06-05T16:47:56;25.20;58.50
79694;DHT22;69165;52.714;13.200;2023-06-05T16:49:58;25.20;59.10
79694;DHT22;69165;52.714;13.200;2023-06-05T16:51:59;25.10;60.40
79694;DHT22;69165;52.714;13.200;2023-06-05T16:54:00;25.10;59.70
79694;DHT22;69165;52.714;13.200;2023-06-05T16:56:01;25.00;58.70
79694;DHT22;69165;52.714;13.200;2023-06-05T16:58:03;24.90;58.20
79694;DHT22;69165;52.714;13.200;2023-06-05T17:00:04;24.90;59.60
79694;DHT22;69165;52.714;13.200;2023-06-05T17:02:06;24.90;59.80
79694;DHT22;69165;52.714;13.200;2023-06-05T17:04:08;24.80;59.80
79694;DHT22;69165;52.714;13.200;2023-06-05T17:06:10;24.70;59.20
79694;DHT22;69165;52.714;13.200;2023-06-05T17:08:11;24.70;59.20
79694;DHT22;69165;52.714;13.200;2023-06-05T17:10:12;24.70;59.50
79694;DHT22;69165;52.714;13.200;2023-06-05T17:12:14;24.70;58.70
79694;DHT22;69165;52.714;13.200;2023-06-05T17:14:15;24.60;58.20
79694;DHT22;69165;52.714;13.200;2023-06-05T17:16:16;24.60;59.20
79694;DHT22;69165;52.714;13.200;2023-06-05T17:18:18;24.50;60.00
79694;DHT22;69165;52.714;13.200;2023-06-05T17:20:19;24.50;59.40
79694;DHT22;69165;52.714;13.200;2023-06-05T17:22:21;24.50;60.00
79694;DHT22;69165;52.714;13.200;2023-06-05T17:24:22;24.40;58.40
79694;DHT22;69165;52.714;13.200;2023-06-05T17:26:23;24.40;58.40
79694;DHT22;69165;52.714;13.200;2023-06-05T17:28:25;24.30;59.30
79694;DHT22;69165;52.714;13.200;2023-06-05T17:30:26;24.30;59.30
79694;DHT22;69165;52.714;13.200;2023-06-05T17:32:28;24.30;59.50
79694;DHT22;69165;52.714;13.200;2023-06-05T17:34:29;24.20;59.80
79694;DHT22;69165;52.714;13.200;2023-06-05T17:36:30;24.10;59.20
79694;DHT22;69165;52.714;13.200;2023-06-05T17:38:31;24.10;59.70
79694;DHT22;69165;52.714;13.200;2023-06-05T17:40:33;24.00;59.90
79694;DHT22;69165;52.714;13.200;2023-06-05T17:42:35;23.90;59.80
79694;DHT22;69165;52.714;13.200;2023-06-05T17:44:36;24.00;60.90
79694;DHT22;69165;52.714;13.200;2023-06-05T17:46:37;23.90;61.30
79694;DHT22;69165;52.714;13.200;2023-06-05T17:48:38;23.90;61.50
79694;DHT22;69165;52.714;13.200;2023-06-05T17:50:40;23.90;61.10
79694;DHT22;69165;52.714;13.200;2023-06-05T17:52:41;23.80;61.20
79694;DHT22;69165;52.714;13.200;2023-06-05T17:54:42;23.90;61.00